Time;durP1;ratioP1;P1;durP2;ratioP2;P2;SDS_P1;SDS_P2;PMS_P1;PMS_P2;Temp;Humidity;BMP_temperature;BMP_pressure;BME280_temperature;BME280_humidity;BME280_pressure;Samples;Min_cycle;Max_cycle;Signal;HPM_P1;HPM_P2
2021/03/19 00:01:39;;;;;;;1999.90;999.90;;;4.40;99.90;;;;;;4989984;28;20056;-70
2021/03/19 00:04:06;;;;;;;1999.90;999.90;;;4.40;99.90;;;;;;5005861;28;20057;-70
2021/03/19 00:06:33;;;;;;;1999.90;999.90;;;4.40;99.90;;;;;;5005562;28;20070;-70
2021/03/19 00:09:01;;;;;;;1999.90;999.90;;;4.40;99.90;;;;;;4987130;28;20137;-70
2021/03/19 00:11:27;;;;;;;1999.90;999.90;;;4.40;99.90;;;;;;4999245;28;20212;-70
2021/03/19 00:13:54;;;;;;;1999.90;999.90;;;4.40;99.90;;;;;;4992032;28;20049;-70
2021/03/19 00:16:20;;;;;;;1999.90;999.90;;;4.40;99.90;;;;;;5004766;28;20052;-70
2021/03/19 00:18:47;;;;;;;1999.90;999.90;;;4.40;99.90;;;;;;5001649;28;20405;-70
2021/03/19 00:21:14;;;;;;;1999.90;999.90;;;4.40;99.90;;;;;;4989149;28;20496;-70
2021/03/19 00:23:40;;;;;;;1999.90;999.90;;;4.30;99.90;;;;;;4987716;28;20050;-70
2021/03/19 00:26:06;;;;;;;1999.90;999.90;;;4.30;99.90;;;;;;5003414;28;20524;-70
2021/03/19 00:28:33;;;;;;;1999.90;999.90;;;4.20;99.90;;;;;;5000452;28;20061;-70
2021/03/19 00:30:59;;;;;;;1999.90;999.90;;;4.10;99.90;;;;;;5007624;28;20382;-70
2021/03/19 00:33:26;;;;;;;1999.90;999.90;;;4.10;99.90;;;;;;4984152;28;20050;-70
2021/03/19 00:35:53;;;;;;;1999.90;999.90;;;4.00;99.90;;;;;;4993361;28;20511;-70
2021/03/19 00:38:19;;;;;;;1999.90;999.90;;;3.90;99.90;;;;;;5014180;28;20145;-70
2021/03/19 00:40:47;;;;;;;1999.90;999.90;;;3.80;99.90;;;;;;5005396;28;20042;-70
2021/03/19 00:43:15;;;;;;;1999.90;999.90;;;3.80;99.90;;;;;;4999559;28;20055;-70
2021/03/19 00:45:42;;;;;;;1999.90;999.90;;;3.70;99.90;;;;;;5078687;28;20133;-70
2021/03/19 00:48:09;;;;;;;1999.90;999.90;;;3.70;99.90;;;;;;5006932;28;20081;-70
2021/03/19 00:50:49;;;;;;;1999.90;999.90;;;3.70;99.90;;;;;;5005501;28;20060;-70
2021/03/19 00:53:15;;;;;;;1999.90;999.90;;;3.60;99.90;;;;;;5005785;28;20497;-70
2021/03/19 00:55:42;;;;;;;1999.90;999.90;;;3.60;99.90;;;;;;5003811;28;20084;-70
2021/03/19 00:58:08;;;;;;;1999.90;999.90;;;3.50;99.90;;;;;;5003715;28;20126;-70
2021/03/19 01:00:36;;;;;;;1999.90;999.90;;;3.50;99.90;;;;;;4990922;28;20168;-70
2021/03/19 01:03:04;;;;;;;1999.90;999.90;;;3.40;99.90;;;;;;4990776;28;20566;-70
2021/03/19 01:05:36;;;;;;;1999.90;999.90;;;3.40;99.90;;;;;;5005071;28;20081;-70
2021/03/19 01:08:05;;;;;;;1999.90;999.90;;;3.30;99.90;;;;;;4989036;28;20136;-70
2021/03/19 01:10:39;;;;;;;1999.90;999.90;;;3.30;99.90;;;;;;5007781;28;20049;-70
2021/03/19 01:13:06;;;;;;;1999.90;999.90;;;3.30;99.90;;;;;;4989170;28;20081;-70
2021/03/19 01:15:32;;;;;;;1999.90;999.90;;;3.30;99.90;;;;;;5009033;28;20107;-70
2021/03/19 01:18:00;;;;;;;1999.90;999.90;;;3.20;99.90;;;;;;4988334;28;20057;-70
2021/03/19 01:20:29;;;;;;;1999.90;999.90;;;3.20;99.90;;;;;;5008383;28;20131;-70
2021/03/19 01:22:56;;;;;;;1999.90;999.90;;;3.20;99.90;;;;;;5004550;28;20453;-70
2021/03/19 01:25:27;;;;;;;1999.90;999.90;;;3.10;99.90;;;;;;5007045;28;20167;-70
2021/03/19 01:27:54;;;;;;;1999.90;999.90;;;3.10;99.90;;;;;;4986078;28;20049;-70
2021/03/19 01:30:24;;;;;;;1999.90;999.90;;;3.10;99.90;;;;;;5007320;28;20155;-70
2021/03/19 01:32:50;;;;;;;1999.90;999.90;;;3.10;99.90;;;;;;5009379;28;20146;-70
2021/03/19 01:35:23;;;;;;;1999.90;999.90;;;3.00;99.90;;;;;;5005638;28;20082;-70
2021/03/19 01:37:50;;;;;;;1999.90;999.90;;;3.10;99.90;;;;;;5003054;28;20054;-70
2021/03/19 01:40:19;;;;;;;1999.90;999.90;;;3.00;99.90;;;;;;5009377;28;20426;-70
2021/03/19 01:43:13;;;;;;;1999.90;999.90;;;3.00;99.90;;;;;;5006572;28;20141;-70
2021/03/19 01:46:17;;;;;;;1999.90;999.90;;;3.00;99.90;;;;;;5004950;28;20065;-70
2021/03/19 01:49:22;;;;;;;1999.90;999.90;;;3.00;99.90;;;;;;5007320;28;20063;-70
2021/03/19 01:52:26;;;;;;;1999.90;999.90;;;2.90;99.90;;;;;;5020154;28;20669;-70
2021/03/19 01:55:31;;;;;;;1999.90;999.90;;;2.90;99.90;;;;;;5007452;28;20064;-70
2021/03/19 01:58:34;;;;;;;1999.90;999.90;;;2.90;99.90;;;;;;5004813;28;20126;-70
2021/03/19 02:01:38;;;;;;;1999.90;999.90;;;2.90;99.90;;;;;;5100298;27;20122;-70
2021/03/19 02:04:43;;;;;;;1999.90;999.90;;;2.90;99.90;;;;;;4990500;28;20082;-70
2021/03/19 02:07:46;;;;;;;1999.90;999.90;;;2.80;99.90;;;;;;5002700;28;20054;-70
2021/03/19 02:10:50;;;;;;;1999.90;999.90;;;2.80;99.90;;;;;;5004678;28;20045;-70
2021/03/19 02:13:54;;;;;;;1999.90;999.90;;;2.80;99.90;;;;;;4990984;28;20045;-70
2021/03/19 02:16:58;;;;;;;1999.90;999.90;;;2.80;99.90;;;;;;5001104;28;20513;-70
2021/03/19 02:20:02;;;;;;;1999.90;999.90;;;2.80;99.90;;;;;;5002910;28;20049;-70
2021/03/19 02:23:06;;;;;;;1999.90;999.90;;;2.70;99.90;;;;;;5000881;28;20049;-70
2021/03/19 02:26:10;;;;;;;1999.90;999.90;;;2.70;99.90;;;;;;5004912;28;20046;-70
2021/03/19 02:29:13;;;;;;;1999.90;999.90;;;2.70;99.90;;;;;;5007054;28;20133;-70
2021/03/19 02:31:54;;;;;;;1999.90;999.90;;;2.70;99.90;;;;;;5002265;28;20128;-70
2021/03/19 02:34:26;;;;;;;1999.90;999.90;;;2.60;99.90;;;;;;4989463;28;20053;-70
2021/03/19 02:36:53;;;;;;;1999.90;999.90;;;2.70;99.90;;;;;;5006305;28;20058;-70
2021/03/19 02:39:19;;;;;;;1999.90;999.90;;;2.60;99.90;;;;;;5004917;28;20046;-70
2021/03/19 02:41:46;;;;;;;1999.90;999.90;;;2.60;99.90;;;;;;4990323;28;20053;-70
2021/03/19 02:44:13;;;;;;;1999.90;999.90;;;2.60;99.90;;;;;;4991537;28;20046;-70
2021/03/19 02:46:39;;;;;;;1999.90;999.90;;;2.60;99.90;;;;;;5001421;28;20054;-70
2021/03/19 02:49:06;;;;;;;1999.90;999.90;;;2.50;99.90;;;;;;5008168;28;20056;-70
2021/03/19 02:51:33;;;;;;;1999.90;999.90;;;2.50;99.90;;;;;;4987438;28;20062;-70
2021/03/19 02:53:59;;;;;;;1999.90;999.90;;;2.50;99.90;;;;;;5001103;28;20058;-70
2021/03/19 02:56:26;;;;;;;1999.90;999.90;;;2.50;99.90;;;;;;5002697;28;20067;-70
2021/03/19 02:58:52;;;;;;;1999.90;999.90;;;2.50;99.90;;;;;;5009939;28;20054;-70
2021/03/19 03:01:18;;;;;;;1999.90;999.90;;;2.50;99.90;;;;;;5006286;28;20050;-70
2021/03/19 03:03:45;;;;;;;1999.90;999.90;;;2.50;99.90;;;;;;5005025;28;20103;-70
2021/03/19 03:06:11;;;;;;;1999.90;999.90;;;2.50;99.90;;;;;;4985883;28;20130;-70
2021/03/19 03:08:37;;;;;;;1999.90;999.90;;;2.50;99.90;;;;;;5007329;28;20050;-70
2021/03/19 03:11:04;;;;;;;1999.90;999.90;;;2.40;99.90;;;;;;5002241;28;20069;-70
2021/03/19 03:13:31;;;;;;;1999.90;999.90;;;2.40;99.90;;;;;;4987297;28;20408;-70
2021/03/19 03:15:58;;;;;;;1999.90;999.90;;;2.40;99.90;;;;;;5002276;28;20050;-70
2021/03/19 03:18:25;;;;;;;1999.90;999.90;;;2.40;99.90;;;;;;4986794;28;20042;-70
2021/03/19 03:20:55;;;;;;;1999.90;999.90;;;2.40;99.90;;;;;;5003709;28;20092;-70
2021/03/19 03:23:25;;;;;;;1999.90;999.90;;;2.30;99.90;;;;;;5006286;28;20460;-70
2021/03/19 03:25:54;;;;;;;1999.90;999.90;;;2.30;99.90;;;;;;5003192;28;20046;-70
2021/03/19 03:28:21;;;;;;;1999.90;999.90;;;2.30;99.90;;;;;;5005961;28;20057;-70
2021/03/19 03:30:51;;;;;;;1999.90;999.90;;;2.30;99.90;;;;;;4985938;28;20392;-70
2021/03/19 03:33:18;;;;;;;1999.90;999.90;;;2.30;99.90;;;;;;5080843;27;20062;-70
2021/03/19 03:35:45;;;;;;;1999.90;999.90;;;2.30;99.90;;;;;;4989147;28;20393;-70
2021/03/19 03:38:15;;;;;;;1999.90;999.90;;;2.30;99.90;;;;;;4988103;28;20546;-70
2021/03/19 03:40:48;;;;;;;1999.90;999.90;;;2.30;99.90;;;;;;4990366;28;20041;-70
2021/03/19 03:43:16;;;;;;;1999.90;999.90;;;2.20;99.90;;;;;;4986967;28;20047;-70
2021/03/19 03:45:43;;;;;;;1999.90;999.90;;;2.20;99.90;;;;;;4985643;28;20082;-70
2021/03/19 03:48:12;;;;;;;1999.90;999.90;;;2.20;99.90;;;;;;4987183;28;20043;-70
2021/03/19 03:50:41;;;;;;;1999.90;999.90;;;2.20;99.90;;;;;;4986886;28;20107;-70
2021/03/19 03:53:10;;;;;;;1999.90;999.90;;;2.10;99.90;;;;;;4989271;28;20046;-70
2021/03/19 03:55:37;;;;;;;1999.90;999.90;;;2.10;99.90;;;;;;4989081;28;20103;-70
2021/03/19 03:58:04;;;;;;;1999.90;999.90;;;2.10;99.90;;;;;;4978746;28;20546;-70
2021/03/19 04:00:31;;;;;;;1999.90;999.90;;;2.10;99.90;;;;;;4985510;28;20462;-70
2021/03/19 04:03:03;;;;;;;1999.90;999.90;;;2.00;99.90;;;;;;4985835;28;20038;-70
2021/03/19 04:05:34;;;;;;;1999.90;999.90;;;2.00;99.90;;;;;;4980270;28;20054;-70
2021/03/19 04:08:00;;;;;;;1999.90;999.90;;;2.00;99.90;;;;;;4980392;28;20053;-70
2021/03/19 04:10:27;;;;;;;1999.90;999.90;;;2.00;99.90;;;;;;4987243;28;20042;-70
2021/03/19 04:12:53;;;;;;;1999.90;999.90;;;1.90;99.90;;;;;;4984205;28;20050;-70
2021/03/19 04:15:21;;;;;;;1999.90;999.90;;;1.90;99.90;;;;;;4987721;28;20125;-69
2021/03/19 04:17:48;;;;;;;1999.90;999.90;;;1.90;99.90;;;;;;4985770;28;20443;-70
2021/03/19 04:20:17;;;;;;;1999.90;999.90;;;1.80;99.90;;;;;;4973319;28;20050;-70
2021/03/19 04:22:43;;;;;;;1999.90;999.90;;;1.80;99.90;;;;;;4976472;28;20121;-70
2021/03/19 04:25:10;;;;;;;1999.90;999.90;;;1.80;99.90;;;;;;4982352;28;20060;-70
2021/03/19 04:27:51;;;;;;;1999.90;999.90;;;1.70;99.90;;;;;;4979371;28;20468;-70
2021/03/19 04:30:26;;;;;;;1999.90;999.90;;;1.70;99.90;;;;;;4980965;28;20043;-70
2021/03/19 04:32:54;;;;;;;1999.90;999.90;;;1.60;99.90;;;;;;4989776;28;20119;-69
2021/03/19 04:35:23;;;;;;;1999.90;999.90;;;1.60;99.90;;;;;;4998473;28;20684;-69
2021/03/19 04:37:51;;;;;;;1999.90;999.90;;;1.60;99.90;;;;;;4982983;28;20540;-70
2021/03/19 04:40:21;;;;;;;1999.90;999.90;;;1.50;99.90;;;;;;4999128;28;20050;-70
2021/03/19 04:42:47;;;;;;;1999.90;999.90;;;1.50;99.90;;;;;;5082036;27;20090;-70
2021/03/19 04:45:15;;;;;;;1999.90;999.90;;;1.50;99.90;;;;;;4998804;28;20133;-70
2021/03/19 04:47:41;;;;;;;1999.90;999.90;;;1.50;99.90;;;;;;4996215;28;20142;-70
2021/03/19 04:50:10;;;;;;;1999.90;999.90;;;1.50;99.90;;;;;;4998157;28;20058;-70
2021/03/19 04:52:37;;;;;;;1999.90;999.90;;;1.50;99.90;;;;;;4997498;28;20120;-70
2021/03/19 04:55:05;;;;;;;1999.90;999.90;;;1.40;99.90;;;;;;4999918;28;20046;-70
2021/03/19 04:57:31;;;;;;;1999.90;999.90;;;1.40;99.90;;;;;;4994628;28;20297;-70
2021/03/19 04:59:58;;;;;;;1999.90;999.90;;;1.40;99.90;;;;;;5067779;27;20522;-70
2021/03/19 05:02:36;;;;;;;1999.90;999.90;;;1.40;99.90;;;;;;4975969;28;20091;-69
2021/03/19 05:05:06;;;;;;;1999.90;999.90;;;1.40;99.90;;;;;;4993606;28;20107;-69
2021/03/19 05:07:32;;;;;;;1999.90;999.90;;;1.40;99.90;;;;;;4992688;28;20580;-69
2021/03/19 05:09:59;;;;;;;1999.90;999.90;;;1.40;99.90;;;;;;4997009;28;20085;-70
2021/03/19 05:12:25;;;;;;;1999.90;999.90;;;1.30;99.90;;;;;;4997126;28;20072;-70
2021/03/19 05:14:51;;;;;;;1999.90;999.90;;;1.40;99.90;;;;;;5000478;28;20086;-70
2021/03/19 05:17:17;;;;;;;1999.90;999.90;;;1.30;99.90;;;;;;4996966;28;20050;-70
2021/03/19 05:19:44;;;;;;;1999.90;999.90;;;1.30;99.90;;;;;;4983225;28;20101;-70
2021/03/19 05:22:10;;;;;;;1999.90;999.90;;;1.30;99.90;;;;;;4999873;28;20048;-70
2021/03/19 05:24:36;;;;;;;1999.90;999.90;;;1.30;99.90;;;;;;4997548;28;20932;-70
2021/03/19 05:27:03;;;;;;;1999.90;999.90;;;1.30;99.90;;;;;;4980263;28;21243;-70
2021/03/19 05:29:30;;;;;;;1999.90;999.90;;;1.30;99.90;;;;;;4984785;28;20056;-69
2021/03/19 05:31:56;;;;;;;1999.90;999.90;;;1.30;99.90;;;;;;4981662;28;20046;-69
2021/03/19 05:34:23;;;;;;;1999.90;999.90;;;1.20;99.90;;;;;;4999095;28;20123;-69
2021/03/19 05:36:49;;;;;;;1999.90;999.90;;;1.20;99.90;;;;;;5002697;28;20129;-70
2021/03/19 05:39:15;;;;;;;1999.90;999.90;;;1.20;99.90;;;;;;4987538;28;20477;-70
2021/03/19 05:41:43;;;;;;;1999.90;999.90;;;1.20;99.90;;;;;;4989251;28;20158;-70
2021/03/19 05:44:20;;;;;;;1999.90;999.90;;;1.20;99.90;;;;;;5008204;28;20119;-70
2021/03/19 05:47:02;;;;;;;1999.90;999.90;;;1.20;99.90;;;;;;4998809;28;20104;-70
2021/03/19 05:49:31;;;;;;;1999.90;999.90;;;1.20;99.90;;;;;;5015208;28;20046;-69
2021/03/19 05:52:06;;;;;;;1999.90;999.90;;;1.10;99.90;;;;;;5002066;28;20042;-69
2021/03/19 05:54:38;;;;;;;1999.90;999.90;;;1.20;99.90;;;;;;5082327;28;20645;-69
2021/03/19 05:57:04;;;;;;;1999.90;999.90;;;1.20;99.90;;;;;;5016013;28;20104;-70
2021/03/19 05:59:32;;;;;;;1999.90;999.90;;;1.20;99.90;;;;;;4995531;28;20045;-70
2021/03/19 06:01:59;;;;;;;1999.90;999.90;;;1.20;99.90;;;;;;4988638;28;20477;-69
2021/03/19 06:04:29;;;;;;;1999.90;999.90;;;1.20;99.90;;;;;;5027722;28;20067;-69
2021/03/19 06:07:01;;;;;;;1999.90;999.90;;;1.10;99.90;;;;;;5006944;28;20045;-69
2021/03/19 06:09:34;;;;;;;1999.90;999.90;;;1.10;99.90;;;;;;4983615;28;20137;-70
2021/03/19 06:12:18;;;;;;;1999.90;999.90;;;1.20;99.90;;;;;;4989331;28;20362;-69
2021/03/19 06:14:53;;;;;;;1999.90;999.90;;;1.20;99.90;;;;;;5007036;28;20066;-69
2021/03/19 06:17:27;;;;;;;1999.90;999.90;;;1.20;99.90;;;;;;4985037;28;20049;-70
2021/03/19 06:20:01;;;;;;;1999.90;999.90;;;1.30;99.90;;;;;;4971709;28;20525;-69
2021/03/19 06:22:58;;;;;;;1999.90;999.90;;;1.30;99.90;;;;;;5014234;28;20150;-70
2021/03/19 06:25:42;;;;;;;1999.90;999.90;;;1.30;99.90;;;;;;4982536;28;20046;-70
2021/03/19 06:28:26;;;;;;;1999.90;999.90;;;1.40;99.90;;;;;;4982964;28;20057;-70
2021/03/19 06:31:19;;;;;;;1999.90;999.90;;;1.50;99.90;;;;;;4987131;28;20136;-70
2021/03/19 06:33:47;;;;;;;1999.90;999.90;;;1.50;99.90;;;;;;5010778;28;20066;-70
2021/03/19 06:36:20;;;;;;;1999.90;999.90;;;1.60;99.90;;;;;;5003467;28;20454;-70
2021/03/19 06:39:07;;;;;;;1999.90;999.90;;;1.70;99.90;;;;;;4994769;28;20441;-70
2021/03/19 06:41:37;;;;;;;1999.90;999.90;;;1.80;99.90;;;;;;4996771;28;20390;-70
2021/03/19 06:44:14;;;;;;;1999.90;999.90;;;1.90;99.90;;;;;;5003381;28;20107;-69
2021/03/19 06:47:05;;;;;;;1999.90;999.90;;;2.00;99.90;;;;;;4980147;28;20045;-69
2021/03/19 06:49:52;;;;;;;1999.90;999.90;;;2.10;99.90;;;;;;4993311;28;20042;-69
2021/03/19 06:52:22;;;;;;;1999.90;999.90;;;2.20;99.90;;;;;;5006125;28;20042;-70
2021/03/19 06:54:53;;;;;;;1999.90;999.90;;;2.30;99.90;;;;;;5010622;28;20450;-70
2021/03/19 06:57:20;;;;;;;;;;;2.40;99.90;;;;;;4995691;28;20508;-69
2021/03/19 06:59:55;;;;;;;1999.90;999.90;;;2.50;99.90;;;;;;4985381;28;19974;-70
2021/03/19 07:02:40;;;;;;;1999.90;999.90;;;2.60;99.90;;;;;;5000852;28;20050;-70
2021/03/19 07:05:35;;;;;;;1999.90;999.90;;;2.70;99.90;;;;;;4998862;28;20516;-70
2021/03/19 07:08:24;;;;;;;1999.90;999.90;;;2.80;99.90;;;;;;4994027;28;20054;-69
2021/03/19 07:11:24;;;;;;;1999.90;999.90;;;3.00;99.90;;;;;;5085877;27;20314;-70
2021/03/19 07:14:35;;;;;;;1999.90;999.90;;;3.10;99.90;;;;;;4986893;28;20140;-70
2021/03/19 07:17:16;;;;;;;1999.90;999.90;;;3.20;99.90;;;;;;5003563;28;20065;-70
2021/03/19 07:20:08;;;;;;;1999.90;999.90;;;3.30;99.90;;;;;;5006852;28;20468;-70
2021/03/19 07:22:51;;;;;;;1999.90;999.90;;;3.50;99.90;;;;;;5000324;28;20049;-70
2021/03/19 07:25:42;;;;;;;1999.90;999.90;;;3.60;99.90;;;;;;4996530;28;20412;-70
2021/03/19 07:28:21;;;;;;;1999.90;999.90;;;3.70;99.90;;;;;;5004581;28;20182;-70
2021/03/19 07:31:25;;;;;;;1999.90;999.90;;;3.80;99.90;;;;;;4982285;28;20054;-70
2021/03/19 07:34:35;;;;;;;1999.90;999.90;;;3.90;99.90;;;;;;5017716;28;20068;-70
2021/03/19 07:37:14;;;;;;;1999.90;999.90;;;4.10;99.90;;;;;;5001125;28;20138;-70
2021/03/19 07:40:05;;;;;;;1999.90;999.90;;;4.20;99.90;;;;;;5001156;28;20418;-70
2021/03/19 07:42:52;;;;;;;1999.90;999.90;;;4.30;99.90;;;;;;4999275;28;20503;-70
2021/03/19 07:45:25;;;;;;;1999.90;999.90;;;4.40;99.90;;;;;;5001073;28;20545;-70
2021/03/19 07:48:09;;;;;;;1999.90;999.90;;;4.60;99.90;;;;;;5001882;28;20121;-70
2021/03/19 07:51:10;;;;;;;1999.90;999.90;;;4.70;99.90;;;;;;5003500;28;20044;-70
2021/03/19 07:54:00;;;;;;;1999.90;999.90;;;4.80;99.90;;;;;;5003325;28;20042;-70
2021/03/19 07:56:49;;;;;;;1999.90;999.90;;;4.90;99.90;;;;;;5001651;28;20089;-69
2021/03/19 07:59:33;;;;;;;1999.90;999.90;;;5.10;99.90;;;;;;4999870;28;20141;-70
2021/03/19 08:02:14;;;;;;;1999.90;999.90;;;5.20;99.90;;;;;;4987009;28;20484;-70
2021/03/19 08:05:01;;;;;;;1999.90;999.90;;;5.30;99.90;;;;;;4998597;28;20358;-70
2021/03/19 08:07:33;;;;;;;1999.90;999.90;;;5.40;99.90;;;;;;4988430;28;20046;-70
2021/03/19 08:10:22;;;;;;;1999.90;999.90;;;5.40;99.90;;;;;;5004216;28;20378;-70
2021/03/19 08:12:51;;;;;;;1999.90;999.90;;;5.60;99.90;;;;;;5000465;28;20136;-70
2021/03/19 08:15:17;;;;;;;;;;;5.60;99.90;;;;;;5004795;28;20247;-70
2021/03/19 08:18:02;;;;;;;1999.90;999.90;;;5.80;99.90;;;;;;5012490;28;20339;-70
2021/03/19 08:20:56;;;;;;;1999.90;999.90;;;5.80;99.90;;;;;;5001541;28;20038;-70
2021/03/19 08:23:49;;;;;;;1999.90;999.90;;;5.90;99.90;;;;;;4994839;28;20064;-70
2021/03/19 08:26:41;;;;;;;1999.90;999.90;;;6.00;99.90;;;;;;4989586;28;20060;-70
2021/03/19 08:29:13;;;;;;;1999.90;999.90;;;6.20;99.90;;;;;;5004884;28;20138;-70
2021/03/19 08:31:51;;;;;;;1999.90;999.90;;;6.30;99.90;;;;;;4981431;28;20499;-70
2021/03/19 08:34:53;;;;;;;1999.90;999.90;;;6.40;99.90;;;;;;4996401;28;20054;-70
2021/03/19 08:37:38;;;;;;;1999.90;999.90;;;6.60;99.90;;;;;;5075019;28;20518;-69
2021/03/19 08:40:16;;;;;;;1999.90;999.90;;;6.70;99.90;;;;;;4999038;28;20107;-70
2021/03/19 08:42:47;;;;;;;1999.90;999.90;;;6.80;99.90;;;;;;5001045;28;20136;-70
2021/03/19 08:45:24;;;;;;;1999.90;999.90;;;6.90;99.90;;;;;;4987970;28;20503;-71
2021/03/19 08:47:53;;;;;;;1999.90;999.90;;;7.00;99.90;;;;;;4986759;28;20056;-70
2021/03/19 08:50:25;;;;;;;1999.90;999.90;;;7.10;99.90;;;;;;5005570;28;21477;-70
2021/03/19 08:53:20;;;;;;;1999.90;999.90;;;7.10;99.90;;;;;;4999703;28;20057;-70
2021/03/19 08:56:11;;;;;;;1999.90;999.90;;;7.20;99.90;;;;;;4986577;28;20053;-70
2021/03/19 08:58:47;;;;;;;1999.90;999.90;;;7.40;99.90;;;;;;4998172;28;20591;-70
2021/03/19 09:01:53;;;;;;;1999.90;999.90;;;7.50;99.90;;;;;;5001519;28;20115;-70
2021/03/19 09:05:00;;;;;;;1999.90;999.90;;;7.60;99.90;;;;;;4984136;28;20041;-70
2021/03/19 09:07:39;;;;;;;1999.90;999.90;;;7.70;99.90;;;;;;4994854;28;20060;-71
2021/03/19 09:10:16;;;;;;;1999.90;999.90;;;7.70;99.90;;;;;;4984271;28;20449;-70
2021/03/19 09:12:57;;;;;;;1999.90;999.90;;;7.90;99.90;;;;;;4987046;28;20064;-70
2021/03/19 09:15:31;;;;;;;1999.90;999.90;;;8.00;99.90;;;;;;5003607;28;20431;-70
2021/03/19 09:18:39;;;;;;;1999.90;999.90;;;8.10;99.90;;;;;;4983079;28;20095;-70
2021/03/19 09:21:31;;;;;;;1999.90;999.90;;;8.20;99.90;;;;;;4984548;28;20053;-70
2021/03/19 09:23:57;;;;;;;1999.90;999.90;;;8.30;99.90;;;;;;5006944;28;20198;-69
2021/03/19 09:26:43;;;;;;;1999.90;999.90;;;8.40;99.90;;;;;;5008474;28;20042;-70
2021/03/19 09:29:12;;;;;;;1999.90;999.90;;;8.50;99.90;;;;;;5005608;28;20061;-70
2021/03/19 09:31:50;;;;;;;1999.90;999.90;;;8.60;99.90;;;;;;5001131;28;20069;-70
2021/03/19 09:34:41;;;;;;;1999.90;999.90;;;8.70;99.90;;;;;;5009539;28;20143;-71
2021/03/19 09:37:10;;;;;;;1999.90;999.90;;;8.80;99.90;;;;;;5004519;28;20049;-71
2021/03/19 09:39:55;;;;;;;1999.90;999.90;;;8.90;99.90;;;;;;5004537;28;20128;-70
2021/03/19 09:42:22;;;;;;;1999.90;999.90;;;9.10;99.90;;;;;;5007859;28;20377;-70
2021/03/19 09:45:01;;;;;;;1999.90;999.90;;;9.20;99.90;;;;;;5006516;28;20050;-70
2021/03/19 09:47:34;;;;;;;1999.90;999.90;;;9.30;99.90;;;;;;5008590;28;20057;-70
2021/03/19 09:50:06;;;;;;;1999.90;999.90;;;9.40;99.90;;;;;;5006063;28;20062;-70
2021/03/19 09:52:33;;;;;;;1999.90;999.90;;;9.50;99.90;;;;;;5005659;28;20174;-70
2021/03/19 09:54:59;;;;;;;1999.90;999.90;;;9.70;99.90;;;;;;4991107;28;20046;-70
2021/03/19 09:57:39;;;;;;;1999.90;999.90;;;9.80;99.90;;;;;;5006341;28;20156;-70
2021/03/19 10:00:29;;;;;;;1999.90;999.90;;;9.90;99.90;;;;;;4992114;28;20048;-70
2021/03/19 10:03:10;;;;;;;1999.90;999.90;;;10.00;99.90;;;;;;4987289;28;20137;-70
2021/03/19 10:05:40;;;;;;;1999.90;999.90;;;10.10;99.90;;;;;;5004473;28;20397;-71
2021/03/19 10:08:09;;;;;;;1999.90;999.90;;;10.30;99.90;;;;;;5010077;28;20118;-70
2021/03/19 10:10:40;;;;;;;1999.90;999.90;;;10.60;99.90;;;;;;5006406;28;20124;-70
2021/03/19 10:13:16;;;;;;;1999.90;999.90;;;10.90;99.90;;;;;;4986071;28;20053;-70
2021/03/19 10:15:44;;;;;;;1999.90;999.90;;;11.20;99.90;;;;;;5008481;28;20077;-71
2021/03/19 10:18:21;;;;;;;1999.90;999.90;;;11.50;99.90;;;;;;5002991;28;20053;-70
2021/03/19 10:20:54;;;;;;;1999.90;999.90;;;11.70;99.90;;;;;;5008782;28;20132;-71
2021/03/19 10:23:24;;;;;;;1999.90;999.90;;;11.90;99.90;;;;;;5010548;28;20053;-71
2021/03/19 10:25:51;;;;;;;1999.90;999.90;;;11.90;99.90;;;;;;5007043;28;20139;-71
2021/03/19 10:28:17;;;;;;;1999.90;999.90;;;11.90;99.90;;;;;;4984634;28;20056;-71
2021/03/19 10:30:58;;;;;;;1999.90;999.90;;;11.90;99.90;;;;;;4989911;28;20057;-71
2021/03/19 10:33:55;;;;;;;1999.90;999.90;;;12.10;99.90;;;;;;4996158;28;20074;-70
2021/03/19 10:36:33;;;;;;;1999.90;999.90;;;12.20;99.90;;;;;;5000454;28;20062;-71
2021/03/19 10:39:10;;;;;;;1999.90;999.90;;;12.40;99.90;;;;;;4983568;28;20050;-70
2021/03/19 10:42:08;;;;;;;1999.90;999.90;;;12.50;99.90;;;;;;4992155;28;20050;-70
2021/03/19 10:44:57;;;;;;;;;;;12.60;99.90;;;;;;4934748;28;20458;-70
2021/03/19 10:47:27;;;;;;;1999.90;999.90;;;12.60;99.90;;;;;;4994479;28;20272;-71
2021/03/19 10:50:13;;;;;;;1999.90;999.90;;;12.50;99.90;;;;;;5007364;28;20390;-71
2021/03/19 10:52:48;;;;;;;1999.90;999.90;;;12.60;99.90;;;;;;5011188;28;20052;-71
2021/03/19 10:55:26;;;;;;;1999.90;999.90;;;12.90;99.90;;;;;;5011683;28;20050;-71
2021/03/19 10:57:56;;;;;;;1999.90;999.90;;;13.00;99.90;;;;;;5003797;28;20442;-71
2021/03/19 11:00:35;;;;;;;1999.90;999.90;;;13.20;99.90;;;;;;5005312;28;20309;-71
2021/03/19 11:03:05;;;;;;;1999.90;999.90;;;13.50;99.90;;;;;;5002857;28;20377;-71
2021/03/19 11:05:53;;;;;;;1999.90;999.90;;;13.70;99.90;;;;;;4991531;28;20038;-71
2021/03/19 11:08:19;;;;;;;1999.90;999.90;;;14.00;99.90;;;;;;4992231;28;20140;-70
2021/03/19 11:10:49;;;;;;;1999.90;999.90;;;14.10;99.90;;;;;;5003668;28;20160;-70
2021/03/19 11:13:15;;;;;;;1999.90;999.90;;;14.20;99.90;;;;;;5003642;28;20053;-71
2021/03/19 11:15:45;;;;;;;1999.90;999.90;;;14.20;99.90;;;;;;4992445;28;20045;-70
2021/03/19 11:18:14;;;;;;;1999.90;999.90;;;13.90;99.90;;;;;;4997758;28;20141;-70
2021/03/19 11:21:07;;;;;;;1999.90;999.90;;;13.90;99.90;;;;;;5003783;28;20392;-71
2021/03/19 11:23:45;;;;;;;1999.90;999.90;;;13.90;99.90;;;;;;4996450;28;20115;-71
2021/03/19 11:26:23;;;;;;;1999.90;999.90;;;14.10;99.90;;;;;;4997825;28;20126;-70
2021/03/19 11:29:24;;;;;;;1999.90;999.90;;;14.30;99.90;;;;;;4997977;28;20062;-71
2021/03/19 11:32:08;;;;;;;1999.90;999.90;;;14.50;99.90;;;;;;5001652;28;20053;-71
2021/03/19 11:34:41;;;;;;;1999.90;999.90;;;14.80;99.90;;;;;;4993229;28;20053;-70
2021/03/19 11:37:15;;;;;;;1999.90;999.90;;;14.90;99.90;;;;;;4992133;28;20497;-70
2021/03/19 11:39:56;;;;;;;1999.90;999.90;;;14.90;99.90;;;;;;4983989;28;20048;-71
2021/03/19 11:42:31;;;;;;;1999.90;999.90;;;15.00;99.90;;;;;;4982792;28;20050;-71
2021/03/19 11:45:09;;;;;;;1999.90;999.90;;;15.20;99.90;;;;;;5004938;28;20042;-71
2021/03/19 11:47:58;;;;;;;1999.90;999.90;;;15.40;99.90;;;;;;5003489;28;20132;-71
2021/03/19 11:50:43;;;;;;;1999.90;999.90;;;15.60;99.90;;;;;;5071300;27;20082;-71
2021/03/19 11:53:17;;;;;;;1999.90;999.90;;;15.80;99.90;;;;;;5007617;28;20047;-71
2021/03/19 11:55:48;;;;;;;1999.90;999.90;;;16.00;99.90;;;;;;5001838;28;20416;-71
2021/03/19 11:58:18;;;;;;;1999.90;999.90;;;16.00;99.90;;;;;;4984655;28;20042;-71
2021/03/19 12:00:45;;;;;;;1999.90;999.90;;;16.00;99.90;;;;;;4999650;28;20176;-71
2021/03/19 12:03:40;;;;;;;1999.90;999.90;;;15.80;99.90;;;;;;5003172;28;20046;-71
2021/03/19 12:06:10;;;;;;;1999.90;999.90;;;15.70;99.90;;;;;;5006969;28;20051;-71
2021/03/19 12:08:39;;;;;;;1999.90;999.90;;;15.80;99.90;;;;;;4997074;28;20075;-71
2021/03/19 12:11:10;;;;;;;1999.90;999.90;;;15.90;99.90;;;;;;5000844;28;20082;-71
2021/03/19 12:13:37;;;;;;;1999.90;999.90;;;15.80;99.90;;;;;;5007707;28;20097;-71
2021/03/19 12:16:03;;;;;;;1999.90;999.90;;;15.90;99.90;;;;;;4990331;28;20073;-71
2021/03/19 12:18:30;;;;;;;1999.90;999.90;;;16.00;99.90;;;;;;5002504;28;20049;-71
2021/03/19 12:20:58;;;;;;;1999.90;999.90;;;16.20;99.90;;;;;;5002878;28;20054;-71
2021/03/19 12:23:25;;;;;;;1999.90;999.90;;;16.40;99.90;;;;;;5000537;28;20054;-71
2021/03/19 12:25:51;;;;;;;1999.90;999.90;;;16.50;99.90;;;;;;5003578;28;20056;-71
2021/03/19 12:28:20;;;;;;;1999.90;999.90;;;16.40;99.90;;;;;;5003160;28;20052;-71
2021/03/19 12:30:47;;;;;;;;;;;16.10;99.90;;;;;;5001477;28;20541;-72
2021/03/19 12:33:16;;;;;;;1999.90;999.90;;;15.80;99.90;;;;;;5080540;28;20000;-71
2021/03/19 12:35:43;;;;;;;1999.90;999.90;;;15.70;99.90;;;;;;5004788;28;20062;-71
2021/03/19 12:38:11;;;;;;;1999.90;999.90;;;15.60;99.90;;;;;;5002016;28;20126;-71
2021/03/19 12:40:38;;;;;;;1999.90;999.90;;;15.70;99.90;;;;;;5006983;28;20057;-70
2021/03/19 12:43:06;;;;;;;1999.90;999.90;;;16.00;99.90;;;;;;5001104;28;20499;-71
2021/03/19 12:45:33;;;;;;;1999.90;999.90;;;16.30;99.90;;;;;;4982343;28;20065;-70
2021/03/19 12:48:01;;;;;;;1999.90;999.90;;;16.50;99.90;;;;;;5002873;28;20050;-70
2021/03/19 12:50:28;;;;;;;1999.90;999.90;;;16.60;99.90;;;;;;5006823;28;20049;-70